Terminal Aerodrome Forecast
Issued by NWS Pittsburgh, PA

Current Version | Previous Version | Graphics & Text | Print | Product List | Glossary On
Versions: 1 2 3 4 5 6 7 8 9 10 11 12 13 14 15 16 17 18 19 20 21 22 23 24 25 26 27 28 29 30 31
947
FTUS41 KPBZ 101645 AAC
TAFPIT
TAF AMD
KPIT 101645Z 1017/1118 24008G17KT 5SM -SHSN OVC018
      TEMPO 1017/1018 1SM -SHSN
     FM102200 26010KT 1 1/2SM -SHSN OVC012
     FM110300 27010G15KT 4SM -SHSN OVC012
     FM111200 30010G20KT 6SM -SHSN BKN025=

USA.gov is the U.S. government's official web portal to all federal, state and local government web resources and services.